sensor_id;sensor_type;location;lat;lon;timestamp;P1;durP1;ratioP1;P2;durP2;ratioP2
74791;SDS011;63319;46.046;17.802;2023-04-20T00:00:44;5.23;;;3.13;;
74791;SDS011;63319;46.046;17.802;2023-04-20T00:03:46;5.78;;;3.10;;
74791;SDS011;63319;46.046;17.802;2023-04-20T00:06:49;5.93;;;3.10;;
74791;SDS011;63319;46.046;17.802;2023-04-20T00:09:53;6.75;;;3.55;;
74791;SDS011;63319;46.046;17.802;2023-04-20T00:12:56;4.70;;;3.03;;
74791;SDS011;63319;46.046;17.802;2023-04-20T00:15:59;6.00;;;3.57;;
74791;SDS011;63319;46.046;17.802;2023-04-20T00:19:02;5.00;;;2.90;;
74791;SDS011;63319;46.046;17.802;2023-04-20T00:22:05;5.70;;;3.10;;
74791;SDS011;63319;46.046;17.802;2023-04-20T00:25:07;5.95;;;3.38;;
74791;SDS011;63319;46.046;17.802;2023-04-20T00:28:11;5.30;;;2.83;;
74791;SDS011;63319;46.046;17.802;2023-04-20T00:31:15;5.60;;;3.47;;
74791;SDS011;63319;46.046;17.802;2023-04-20T00:34:19;5.50;;;3.17;;
74791;SDS011;63319;46.046;17.802;2023-04-20T00:37:22;5.43;;;3.00;;
74791;SDS011;63319;46.046;17.802;2023-04-20T00:40:29;5.03;;;3.10;;
74791;SDS011;63319;46.046;17.802;2023-04-20T00:43:32;5.47;;;3.00;;
74791;SDS011;63319;46.046;17.802;2023-04-20T00:46:35;6.93;;;2.30;;
74791;SDS011;63319;46.046;17.802;2023-04-20T00:49:38;6.40;;;2.90;;
74791;SDS011;63319;46.046;17.802;2023-04-20T00:52:42;4.38;;;2.55;;
74791;SDS011;63319;46.046;17.802;2023-04-20T00:55:46;5.00;;;2.80;;
74791;SDS011;63319;46.046;17.802;2023-04-20T00:58:49;4.50;;;2.40;;
74791;SDS011;63319;46.046;17.802;2023-04-20T01:01:52;5.67;;;3.20;;
74791;SDS011;63319;46.046;17.802;2023-04-20T01:04:55;6.55;;;3.22;;
74791;SDS011;63319;46.046;17.802;2023-04-20T01:07:58;5.28;;;2.70;;
74791;SDS011;63319;46.046;17.802;2023-04-20T01:11:03;4.82;;;2.65;;
74791;SDS011;63319;46.046;17.802;2023-04-20T01:14:06;4.90;;;3.00;;
74791;SDS011;63319;46.046;17.802;2023-04-20T01:17:09;4.93;;;2.80;;
74791;SDS011;63319;46.046;17.802;2023-04-20T01:20:12;5.22;;;2.75;;
74791;SDS011;63319;46.046;17.802;2023-04-20T01:23:16;6.22;;;2.97;;
74791;SDS011;63319;46.046;17.802;2023-04-20T01:26:19;5.32;;;2.83;;
74791;SDS011;63319;46.046;17.802;2023-04-20T01:29:25;5.00;;;2.67;;
74791;SDS011;63319;46.046;17.802;2023-04-20T01:32:28;4.60;;;2.77;;
74791;SDS011;63319;46.046;17.802;2023-04-20T01:35:33;4.50;;;2.47;;
74791;SDS011;63319;46.046;17.802;2023-04-20T01:38:36;5.70;;;2.88;;
74791;SDS011;63319;46.046;17.802;2023-04-20T01:41:43;5.50;;;2.80;;
74791;SDS011;63319;46.046;17.802;2023-04-20T01:44:46;6.00;;;2.87;;
74791;SDS011;63319;46.046;17.802;2023-04-20T01:47:49;5.23;;;2.70;;
74791;SDS011;63319;46.046;17.802;2023-04-20T01:50:52;5.72;;;2.55;;
74791;SDS011;63319;46.046;17.802;2023-04-20T01:53:55;5.32;;;3.00;;
74791;SDS011;63319;46.046;17.802;2023-04-20T01:56:58;5.00;;;2.70;;
74791;SDS011;63319;46.046;17.802;2023-04-20T02:00:00;5.10;;;2.57;;
74791;SDS011;63319;46.046;17.802;2023-04-20T02:03:15;5.67;;;2.90;;
74791;SDS011;63319;46.046;17.802;2023-04-20T02:06:18;4.57;;;2.58;;
74791;SDS011;63319;46.046;17.802;2023-04-20T02:09:21;4.53;;;2.50;;
74791;SDS011;63319;46.046;17.802;2023-04-20T02:12:24;5.40;;;2.75;;
74791;SDS011;63319;46.046;17.802;2023-04-20T02:15:27;5.30;;;3.00;;
74791;SDS011;63319;46.046;17.802;2023-04-20T02:18:30;5.43;;;2.87;;
74791;SDS011;63319;46.046;17.802;2023-04-20T02:21:34;5.22;;;3.03;;
74791;SDS011;63319;46.046;17.802;2023-04-20T02:24:37;5.63;;;2.80;;
74791;SDS011;63319;46.046;17.802;2023-04-20T02:27:40;4.72;;;2.63;;
74791;SDS011;63319;46.046;17.802;2023-04-20T02:30:45;5.60;;;2.50;;
74791;SDS011;63319;46.046;17.802;2023-04-20T02:33:48;5.07;;;2.97;;
74791;SDS011;63319;46.046;17.802;2023-04-20T02:36:51;4.93;;;2.75;;
74791;SDS011;63319;46.046;17.802;2023-04-20T02:39:53;4.55;;;2.35;;
74791;SDS011;63319;46.046;17.802;2023-04-20T02:43:00;4.70;;;2.50;;
74791;SDS011;63319;46.046;17.802;2023-04-20T02:46:03;4.90;;;2.70;;
74791;SDS011;63319;46.046;17.802;2023-04-20T02:49:06;4.03;;;2.33;;
74791;SDS011;63319;46.046;17.802;2023-04-20T02:52:17;4.93;;;2.80;;
74791;SDS011;63319;46.046;17.802;2023-04-20T02:55:20;4.60;;;2.47;;
74791;SDS011;63319;46.046;17.802;2023-04-20T02:58:27;4.38;;;2.47;;
74791;SDS011;63319;46.046;17.802;2023-04-20T03:01:59;5.07;;;2.63;;
74791;SDS011;63319;46.046;17.802;2023-04-20T03:05:03;5.10;;;2.57;;
74791;SDS011;63319;46.046;17.802;2023-04-20T03:08:14;4.45;;;2.58;;
74791;SDS011;63319;46.046;17.802;2023-04-20T03:11:19;4.65;;;2.63;;
74791;SDS011;63319;46.046;17.802;2023-04-20T03:14:25;6.13;;;2.80;;
74791;SDS011;63319;46.046;17.802;2023-04-20T03:17:28;4.77;;;2.47;;
74791;SDS011;63319;46.046;17.802;2023-04-20T03:20:31;4.33;;;2.20;;
74791;SDS011;63319;46.046;17.802;2023-04-20T03:23:34;5.13;;;2.58;;
74791;SDS011;63319;46.046;17.802;2023-04-20T03:26:38;4.97;;;2.50;;
74791;SDS011;63319;46.046;17.802;2023-04-20T03:30:22;5.28;;;2.78;;
74791;SDS011;63319;46.046;17.802;2023-04-20T03:33:34;4.50;;;2.47;;
74791;SDS011;63319;46.046;17.802;2023-04-20T03:36:37;4.70;;;2.70;;
74791;SDS011;63319;46.046;17.802;2023-04-20T03:39:40;4.15;;;2.50;;
74791;SDS011;63319;46.046;17.802;2023-04-20T03:42:43;4.95;;;2.67;;
74791;SDS011;63319;46.046;17.802;2023-04-20T03:45:46;4.80;;;2.50;;
74791;SDS011;63319;46.046;17.802;2023-04-20T03:48:52;5.47;;;2.63;;
74791;SDS011;63319;46.046;17.802;2023-04-20T03:51:54;4.37;;;2.53;;
74791;SDS011;63319;46.046;17.802;2023-04-20T03:54:57;6.35;;;3.10;;
74791;SDS011;63319;46.046;17.802;2023-04-20T03:58:02;4.07;;;2.33;;
74791;SDS011;63319;46.046;17.802;2023-04-20T04:01:15;4.47;;;2.28;;
74791;SDS011;63319;46.046;17.802;2023-04-20T04:04:21;5.27;;;2.47;;
74791;SDS011;63319;46.046;17.802;2023-04-20T04:07:25;4.93;;;2.57;;
74791;SDS011;63319;46.046;17.802;2023-04-20T04:10:28;5.22;;;2.42;;
74791;SDS011;63319;46.046;17.802;2023-04-20T04:13:31;4.35;;;2.15;;
74791;SDS011;63319;46.046;17.802;2023-04-20T04:16:37;4.60;;;2.50;;
74791;SDS011;63319;46.046;17.802;2023-04-20T04:19:41;5.00;;;2.70;;
74791;SDS011;63319;46.046;17.802;2023-04-20T04:22:45;3.90;;;2.37;;
74791;SDS011;63319;46.046;17.802;2023-04-20T04:26:06;4.65;;;2.30;;
74791;SDS011;63319;46.046;17.802;2023-04-20T04:29:13;4.80;;;2.20;;
74791;SDS011;63319;46.046;17.802;2023-04-20T04:32:17;4.32;;;2.28;;
74791;SDS011;63319;46.046;17.802;2023-04-20T04:35:20;4.80;;;2.33;;
74791;SDS011;63319;46.046;17.802;2023-04-20T04:38:23;4.90;;;2.90;;
74791;SDS011;63319;46.046;17.802;2023-04-20T04:41:26;4.65;;;2.40;;
74791;SDS011;63319;46.046;17.802;2023-04-20T04:44:40;4.60;;;2.28;;
74791;SDS011;63319;46.046;17.802;2023-04-20T04:47:46;5.15;;;2.70;;
74791;SDS011;63319;46.046;17.802;2023-04-20T04:50:49;4.50;;;2.43;;
74791;SDS011;63319;46.046;17.802;2023-04-20T04:53:51;4.47;;;2.67;;
74791;SDS011;63319;46.046;17.802;2023-04-20T04:56:54;4.25;;;2.25;;
74791;SDS011;63319;46.046;17.802;2023-04-20T04:59:57;4.68;;;2.45;;
74791;SDS011;63319;46.046;17.802;2023-04-20T05:03:06;5.30;;;2.92;;
74791;SDS011;63319;46.046;17.802;2023-04-20T05:06:09;4.60;;;2.17;;
74791;SDS011;63319;46.046;17.802;2023-04-20T05:09:11;4.83;;;2.43;;
74791;SDS011;63319;46.046;17.802;2023-04-20T05:12:15;4.40;;;2.55;;
74791;SDS011;63319;46.046;17.802;2023-04-20T05:15:17;4.40;;;2.33;;
74791;SDS011;63319;46.046;17.802;2023-04-20T05:18:20;3.92;;;2.22;;
74791;SDS011;63319;46.046;17.802;2023-04-20T05:21:23;4.13;;;2.37;;
74791;SDS011;63319;46.046;17.802;2023-04-20T05:24:26;4.87;;;2.80;;
74791;SDS011;63319;46.046;17.802;2023-04-20T05:27:29;4.35;;;2.28;;
74791;SDS011;63319;46.046;17.802;2023-04-20T05:30:32;4.88;;;2.50;;
74791;SDS011;63319;46.046;17.802;2023-04-20T05:33:35;4.63;;;2.60;;
74791;SDS011;63319;46.046;17.802;2023-04-20T05:36:38;4.17;;;2.23;;
74791;SDS011;63319;46.046;17.802;2023-04-20T05:39:41;4.77;;;2.83;;
74791;SDS011;63319;46.046;17.802;2023-04-20T05:42:44;4.05;;;2.30;;
74791;SDS011;63319;46.046;17.802;2023-04-20T05:45:47;6.82;;;2.50;;
74791;SDS011;63319;46.046;17.802;2023-04-20T05:48:50;4.30;;;2.15;;
74791;SDS011;63319;46.046;17.802;2023-04-20T05:51:55;4.70;;;2.40;;
74791;SDS011;63319;46.046;17.802;2023-04-20T05:54:58;6.20;;;2.50;;
74791;SDS011;63319;46.046;17.802;2023-04-20T05:58:05;4.55;;;2.40;;
74791;SDS011;63319;46.046;17.802;2023-04-20T06:01:17;4.63;;;2.30;;
74791;SDS011;63319;46.046;17.802;2023-04-20T06:04:20;5.50;;;2.72;;
74791;SDS011;63319;46.046;17.802;2023-04-20T06:07:23;6.10;;;2.93;;
74791;SDS011;63319;46.046;17.802;2023-04-20T06:10:26;8.93;;;3.00;;
74791;SDS011;63319;46.046;17.802;2023-04-20T06:13:33;4.28;;;2.08;;
74791;SDS011;63319;46.046;17.802;2023-04-20T06:16:36;4.45;;;2.30;;
74791;SDS011;63319;46.046;17.802;2023-04-20T06:19:39;3.70;;;2.20;;
74791;SDS011;63319;46.046;17.802;2023-04-20T06:22:42;5.57;;;2.40;;
74791;SDS011;63319;46.046;17.802;2023-04-20T06:25:45;4.80;;;2.30;;
74791;SDS011;63319;46.046;17.802;2023-04-20T06:28:48;5.00;;;2.55;;
74791;SDS011;63319;46.046;17.802;2023-04-20T06:31:53;4.20;;;2.20;;
74791;SDS011;63319;46.046;17.802;2023-04-20T06:34:56;4.45;;;2.40;;
74791;SDS011;63319;46.046;17.802;2023-04-20T06:37:59;4.50;;;2.50;;
74791;SDS011;63319;46.046;17.802;2023-04-20T06:41:03;3.67;;;2.10;;
74791;SDS011;63319;46.046;17.802;2023-04-20T06:44:07;4.45;;;2.33;;
74791;SDS011;63319;46.046;17.802;2023-04-20T06:47:09;4.60;;;2.35;;
74791;SDS011;63319;46.046;17.802;2023-04-20T06:50:12;5.70;;;2.10;;
74791;SDS011;63319;46.046;17.802;2023-04-20T06:53:23;4.23;;;1.97;;
74791;SDS011;63319;46.046;17.802;2023-04-20T06:56:26;6.17;;;2.30;;
74791;SDS011;63319;46.046;17.802;2023-04-20T06:59:28;6.57;;;1.95;;
74791;SDS011;63319;46.046;17.802;2023-04-20T07:02:40;6.38;;;2.25;;
74791;SDS011;63319;46.046;17.802;2023-04-20T07:05:44;6.47;;;2.63;;
74791;SDS011;63319;46.046;17.802;2023-04-20T07:08:47;4.73;;;2.47;;
74791;SDS011;63319;46.046;17.802;2023-04-20T07:11:50;6.47;;;2.70;;
74791;SDS011;63319;46.046;17.802;2023-04-20T07:14:52;5.18;;;2.33;;
74791;SDS011;63319;46.046;17.802;2023-04-20T07:17:56;14.48;;;2.38;;
74791;SDS011;63319;46.046;17.802;2023-04-20T07:20:59;7.40;;;2.72;;
74791;SDS011;63319;46.046;17.802;2023-04-20T07:24:02;12.67;;;2.87;;
74791;SDS011;63319;46.046;17.802;2023-04-20T07:27:05;4.87;;;2.67;;
74791;SDS011;63319;46.046;17.802;2023-04-20T07:30:13;4.97;;;2.50;;
74791;SDS011;63319;46.046;17.802;2023-04-20T07:33:16;6.60;;;2.35;;
74791;SDS011;63319;46.046;17.802;2023-04-20T07:36:18;5.47;;;2.70;;
74791;SDS011;63319;46.046;17.802;2023-04-20T07:39:22;5.47;;;2.30;;
74791;SDS011;63319;46.046;17.802;2023-04-20T07:42:28;5.20;;;2.63;;
74791;SDS011;63319;46.046;17.802;2023-04-20T07:45:31;5.93;;;2.95;;
74791;SDS011;63319;46.046;17.802;2023-04-20T07:48:34;5.60;;;2.45;;
74791;SDS011;63319;46.046;17.802;2023-04-20T07:51:38;6.78;;;3.20;;
74791;SDS011;63319;46.046;17.802;2023-04-20T07:54:40;9.57;;;2.40;;
74791;SDS011;63319;46.046;17.802;2023-04-20T07:57:43;6.50;;;3.13;;
74791;SDS011;63319;46.046;17.802;2023-04-20T08:00:46;7.05;;;2.72;;
74791;SDS011;63319;46.046;17.802;2023-04-20T08:03:49;7.65;;;3.05;;
74791;SDS011;63319;46.046;17.802;2023-04-20T08:06:53;6.40;;;3.42;;
74791;SDS011;63319;46.046;17.802;2023-04-20T08:09:56;7.27;;;2.87;;
74791;SDS011;63319;46.046;17.802;2023-04-20T08:12:59;6.37;;;3.40;;
74791;SDS011;63319;46.046;17.802;2023-04-20T08:16:02;6.65;;;3.08;;
74791;SDS011;63319;46.046;17.802;2023-04-20T08:19:05;5.35;;;2.78;;
74791;SDS011;63319;46.046;17.802;2023-04-20T08:22:11;9.85;;;3.03;;
74791;SDS011;63319;46.046;17.802;2023-04-20T08:25:21;7.23;;;2.60;;
74791;SDS011;63319;46.046;17.802;2023-04-20T08:28:26;5.90;;;2.33;;
74791;SDS011;63319;46.046;17.802;2023-04-20T08:31:36;7.93;;;2.75;;
74791;SDS011;63319;46.046;17.802;2023-04-20T08:34:39;8.88;;;3.08;;
74791;SDS011;63319;46.046;17.802;2023-04-20T08:37:42;5.95;;;2.70;;
74791;SDS011;63319;46.046;17.802;2023-04-20T08:40:45;9.03;;;2.70;;
74791;SDS011;63319;46.046;17.802;2023-04-20T08:43:48;9.50;;;3.03;;
74791;SDS011;63319;46.046;17.802;2023-04-20T08:46:52;11.38;;;4.05;;
74791;SDS011;63319;46.046;17.802;2023-04-20T08:49:55;12.23;;;4.65;;
74791;SDS011;63319;46.046;17.802;2023-04-20T08:53:01;9.48;;;5.05;;
74791;SDS011;63319;46.046;17.802;2023-04-20T08:56:05;10.47;;;5.20;;
74791;SDS011;63319;46.046;17.802;2023-04-20T08:59:08;17.00;;;6.33;;
74791;SDS011;63319;46.046;17.802;2023-04-20T09:02:13;19.20;;;6.45;;
74791;SDS011;63319;46.046;17.802;2023-04-20T09:05:30;27.00;;;9.77;;
74791;SDS011;63319;46.046;17.802;2023-04-20T09:08:49;22.17;;;8.70;;
74791;SDS011;63319;46.046;17.802;2023-04-20T09:12:02;16.77;;;8.10;;
74791;SDS011;63319;46.046;17.802;2023-04-20T09:15:06;16.97;;;8.30;;
74791;SDS011;63319;46.046;17.802;2023-04-20T09:18:10;13.82;;;7.55;;
74791;SDS011;63319;46.046;17.802;2023-04-20T09:21:15;14.25;;;7.22;;
74791;SDS011;63319;46.046;17.802;2023-04-20T09:24:19;14.98;;;7.80;;
74791;SDS011;63319;46.046;17.802;2023-04-20T09:27:22;12.70;;;7.63;;
74791;SDS011;63319;46.046;17.802;2023-04-20T09:30:40;11.47;;;7.17;;
74791;SDS011;63319;46.046;17.802;2023-04-20T09:33:58;12.77;;;7.03;;
74791;SDS011;63319;46.046;17.802;2023-04-20T09:37:07;14.18;;;6.65;;
74791;SDS011;63319;46.046;17.802;2023-04-20T09:40:13;12.20;;;6.75;;
74791;SDS011;63319;46.046;17.802;2023-04-20T09:43:18;15.37;;;6.23;;
74791;SDS011;63319;46.046;17.802;2023-04-20T09:46:28;11.80;;;6.47;;
74791;SDS011;63319;46.046;17.802;2023-04-20T09:49:43;12.45;;;7.13;;
74791;SDS011;63319;46.046;17.802;2023-04-20T09:52:48;14.32;;;6.10;;
74791;SDS011;63319;46.046;17.802;2023-04-20T09:55:51;16.02;;;6.60;;
74791;SDS011;63319;46.046;17.802;2023-04-20T09:58:54;14.33;;;6.53;;
74791;SDS011;63319;46.046;17.802;2023-04-20T10:01:58;10.70;;;5.17;;
74791;SDS011;63319;46.046;17.802;2023-04-20T10:05:01;11.10;;;4.68;;
74791;SDS011;63319;46.046;17.802;2023-04-20T10:08:05;7.63;;;4.30;;
74791;SDS011;63319;46.046;17.802;2023-04-20T10:11:08;8.15;;;3.85;;
74791;SDS011;63319;46.046;17.802;2023-04-20T10:14:15;7.60;;;3.87;;
74791;SDS011;63319;46.046;17.802;2023-04-20T10:17:27;6.37;;;3.70;;
74791;SDS011;63319;46.046;17.802;2023-04-20T10:20:34;7.13;;;4.82;;
74791;SDS011;63319;46.046;17.802;2023-04-20T10:23:49;7.40;;;3.92;;
74791;SDS011;63319;46.046;17.802;2023-04-20T10:26:53;7.40;;;4.05;;
74791;SDS011;63319;46.046;17.802;2023-04-20T10:29:55;8.40;;;4.30;;
74791;SDS011;63319;46.046;17.802;2023-04-20T10:33:05;8.83;;;4.47;;
74791;SDS011;63319;46.046;17.802;2023-04-20T10:36:21;9.35;;;4.93;;
74791;SDS011;63319;46.046;17.802;2023-04-20T10:39:24;12.85;;;5.55;;
74791;SDS011;63319;46.046;17.802;2023-04-20T10:42:28;12.93;;;4.93;;
74791;SDS011;63319;46.046;17.802;2023-04-20T10:45:43;8.63;;;4.23;;
74791;SDS011;63319;46.046;17.802;2023-04-20T10:51:55;8.07;;;4.47;;
74791;SDS011;63319;46.046;17.802;2023-04-20T10:55:01;7.15;;;4.47;;
74791;SDS011;63319;46.046;17.802;2023-04-20T10:58:04;8.35;;;4.63;;
74791;SDS011;63319;46.046;17.802;2023-04-20T11:01:08;9.13;;;3.67;;
74791;SDS011;63319;46.046;17.802;2023-04-20T11:04:11;7.90;;;4.10;;
74791;SDS011;63319;46.046;17.802;2023-04-20T11:07:23;9.00;;;3.97;;
74791;SDS011;63319;46.046;17.802;2023-04-20T11:10:40;8.77;;;3.58;;
74791;SDS011;63319;46.046;17.802;2023-04-20T11:13:43;10.68;;;4.07;;
74791;SDS011;63319;46.046;17.802;2023-04-20T11:16:50;10.23;;;4.23;;
74791;SDS011;63319;46.046;17.802;2023-04-20T11:20:02;10.17;;;4.60;;
74791;SDS011;63319;46.046;17.802;2023-04-20T11:23:10;7.82;;;4.32;;
74791;SDS011;63319;46.046;17.802;2023-04-20T11:26:13;6.70;;;3.40;;
74791;SDS011;63319;46.046;17.802;2023-04-20T11:29:29;7.38;;;4.35;;
74791;SDS011;63319;46.046;17.802;2023-04-20T11:32:40;14.90;;;4.93;;
74791;SDS011;63319;46.046;17.802;2023-04-20T11:35:43;13.80;;;5.77;;
74791;SDS011;63319;46.046;17.802;2023-04-20T11:38:46;12.00;;;5.50;;
74791;SDS011;63319;46.046;17.802;2023-04-20T11:41:49;9.52;;;4.80;;
74791;SDS011;63319;46.046;17.802;2023-04-20T11:44:54;9.38;;;4.88;;
74791;SDS011;63319;46.046;17.802;2023-04-20T11:47:57;10.17;;;4.73;;
74791;SDS011;63319;46.046;17.802;2023-04-20T11:51:01;10.57;;;4.60;;
74791;SDS011;63319;46.046;17.802;2023-04-20T11:54:05;17.45;;;4.22;;
74791;SDS011;63319;46.046;17.802;2023-04-20T11:57:08;10.98;;;4.65;;
74791;SDS011;63319;46.046;17.802;2023-04-20T12:00:11;10.82;;;4.55;;
74791;SDS011;63319;46.046;17.802;2023-04-20T12:03:14;13.47;;;4.70;;
74791;SDS011;63319;46.046;17.802;2023-04-20T12:06:18;10.40;;;4.40;;
74791;SDS011;63319;46.046;17.802;2023-04-20T12:09:21;13.75;;;4.95;;
74791;SDS011;63319;46.046;17.802;2023-04-20T12:12:24;15.88;;;4.47;;
74791;SDS011;63319;46.046;17.802;2023-04-20T12:15:27;10.65;;;4.35;;
74791;SDS011;63319;46.046;17.802;2023-04-20T12:18:30;9.57;;;4.23;;
74791;SDS011;63319;46.046;17.802;2023-04-20T12:21:34;12.90;;;4.07;;
74791;SDS011;63319;46.046;17.802;2023-04-20T12:24:36;10.43;;;3.97;;
74791;SDS011;63319;46.046;17.802;2023-04-20T12:27:39;13.52;;;4.82;;
74791;SDS011;63319;46.046;17.802;2023-04-20T12:30:42;10.20;;;4.03;;
74791;SDS011;63319;46.046;17.802;2023-04-20T12:33:45;13.37;;;4.07;;
74791;SDS011;63319;46.046;17.802;2023-04-20T12:36:48;10.10;;;4.30;;
74791;SDS011;63319;46.046;17.802;2023-04-20T12:39:51;10.02;;;4.18;;
74791;SDS011;63319;46.046;17.802;2023-04-20T12:42:53;9.85;;;3.90;;
74791;SDS011;63319;46.046;17.802;2023-04-20T12:45:56;9.25;;;4.10;;
74791;SDS011;63319;46.046;17.802;2023-04-20T12:48:59;10.37;;;4.63;;
74791;SDS011;63319;46.046;17.802;2023-04-20T12:52:02;9.93;;;3.93;;
74791;SDS011;63319;46.046;17.802;2023-04-20T12:55:06;8.77;;;3.70;;
74791;SDS011;63319;46.046;17.802;2023-04-20T12:58:10;7.45;;;3.55;;
74791;SDS011;63319;46.046;17.802;2023-04-20T13:01:13;12.88;;;4.00;;
74791;SDS011;63319;46.046;17.802;2023-04-20T13:04:15;8.50;;;3.77;;
74791;SDS011;63319;46.046;17.802;2023-04-20T13:07:19;8.57;;;3.67;;
74791;SDS011;63319;46.046;17.802;2023-04-20T13:10:22;8.05;;;4.00;;
74791;SDS011;63319;46.046;17.802;2023-04-20T13:13:25;11.63;;;3.80;;
74791;SDS011;63319;46.046;17.802;2023-04-20T13:16:27;9.57;;;3.95;;
74791;SDS011;63319;46.046;17.802;2023-04-20T13:19:31;11.17;;;4.70;;
74791;SDS011;63319;46.046;17.802;2023-04-20T13:22:34;7.10;;;3.50;;
74791;SDS011;63319;46.046;17.802;2023-04-20T13:25:51;10.18;;;4.25;;
74791;SDS011;63319;46.046;17.802;2023-04-20T13:28:54;8.57;;;3.88;;
74791;SDS011;63319;46.046;17.802;2023-04-20T13:31:59;12.27;;;4.18;;
74791;SDS011;63319;46.046;17.802;2023-04-20T13:35:02;11.27;;;3.80;;
74791;SDS011;63319;46.046;17.802;2023-04-20T13:38:10;8.30;;;4.17;;
74791;SDS011;63319;46.046;17.802;2023-04-20T13:41:14;9.25;;;4.00;;
74791;SDS011;63319;46.046;17.802;2023-04-20T13:44:17;9.63;;;3.72;;
74791;SDS011;63319;46.046;17.802;2023-04-20T13:47:20;8.27;;;3.63;;
74791;SDS011;63319;46.046;17.802;2023-04-20T13:50:23;5.93;;;3.57;;
74791;SDS011;63319;46.046;17.802;2023-04-20T13:53:26;9.43;;;3.83;;
74791;SDS011;63319;46.046;17.802;2023-04-20T13:56:29;7.97;;;4.18;;
74791;SDS011;63319;46.046;17.802;2023-04-20T13:59:37;8.55;;;3.50;;
74791;SDS011;63319;46.046;17.802;2023-04-20T14:02:39;6.65;;;3.53;;
74791;SDS011;63319;46.046;17.802;2023-04-20T14:05:43;7.77;;;3.67;;
74791;SDS011;63319;46.046;17.802;2023-04-20T14:08:47;9.30;;;4.00;;
74791;SDS011;63319;46.046;17.802;2023-04-20T14:11:50;7.63;;;3.50;;
74791;SDS011;63319;46.046;17.802;2023-04-20T14:14:58;8.15;;;3.28;;
74791;SDS011;63319;46.046;17.802;2023-04-20T14:18:02;7.60;;;3.50;;
74791;SDS011;63319;46.046;17.802;2023-04-20T14:21:05;7.07;;;3.40;;
74791;SDS011;63319;46.046;17.802;2023-04-20T14:24:08;8.13;;;3.87;;
74791;SDS011;63319;46.046;17.802;2023-04-20T14:27:12;9.70;;;3.72;;
74791;SDS011;63319;46.046;17.802;2023-04-20T14:30:15;10.82;;;3.58;;
74791;SDS011;63319;46.046;17.802;2023-04-20T14:33:18;8.55;;;3.72;;
74791;SDS011;63319;46.046;17.802;2023-04-20T14:36:21;6.37;;;3.43;;
74791;SDS011;63319;46.046;17.802;2023-04-20T14:39:24;8.03;;;3.50;;
74791;SDS011;63319;46.046;17.802;2023-04-20T14:42:27;6.55;;;3.10;;
74791;SDS011;63319;46.046;17.802;2023-04-20T14:45:29;7.03;;;3.30;;
74791;SDS011;63319;46.046;17.802;2023-04-20T14:48:33;8.55;;;3.63;;
74791;SDS011;63319;46.046;17.802;2023-04-20T14:51:37;7.23;;;3.67;;
74791;SDS011;63319;46.046;17.802;2023-04-20T14:54:39;6.63;;;3.33;;
74791;SDS011;63319;46.046;17.802;2023-04-20T14:57:42;8.55;;;3.70;;
74791;SDS011;63319;46.046;17.802;2023-04-20T15:00:45;7.43;;;3.35;;
74791;SDS011;63319;46.046;17.802;2023-04-20T15:03:50;6.15;;;3.20;;
74791;SDS011;63319;46.046;17.802;2023-04-20T15:06:53;6.33;;;3.00;;
74791;SDS011;63319;46.046;17.802;2023-04-20T15:09:56;8.23;;;3.87;;
74791;SDS011;63319;46.046;17.802;2023-04-20T15:12:58;7.80;;;3.85;;
74791;SDS011;63319;46.046;17.802;2023-04-20T15:16:01;7.72;;;3.67;;
74791;SDS011;63319;46.046;17.802;2023-04-20T15:19:07;7.13;;;3.45;;
74791;SDS011;63319;46.046;17.802;2023-04-20T15:22:10;6.70;;;3.10;;
74791;SDS011;63319;46.046;17.802;2023-04-20T15:25:13;8.27;;;3.47;;
74791;SDS011;63319;46.046;17.802;2023-04-20T15:28:16;8.43;;;3.10;;
74791;SDS011;63319;46.046;17.802;2023-04-20T15:31:20;5.97;;;3.03;;
74791;SDS011;63319;46.046;17.802;2023-04-20T15:34:23;7.85;;;3.60;;
74791;SDS011;63319;46.046;17.802;2023-04-20T15:37:26;7.33;;;3.43;;
74791;SDS011;63319;46.046;17.802;2023-04-20T15:40:29;8.57;;;3.30;;
74791;SDS011;63319;46.046;17.802;2023-04-20T15:43:32;5.85;;;3.10;;
74791;SDS011;63319;46.046;17.802;2023-04-20T15:46:35;7.82;;;3.17;;
74791;SDS011;63319;46.046;17.802;2023-04-20T15:49:38;5.93;;;2.90;;
74791;SDS011;63319;46.046;17.802;2023-04-20T15:52:42;6.90;;;3.60;;
74791;SDS011;63319;46.046;17.802;2023-04-20T15:55:45;6.47;;;3.00;;
74791;SDS011;63319;46.046;17.802;2023-04-20T15:58:48;5.97;;;3.05;;
74791;SDS011;63319;46.046;17.802;2023-04-20T16:01:51;5.97;;;3.40;;
74791;SDS011;63319;46.046;17.802;2023-04-20T16:04:54;6.35;;;3.45;;
74791;SDS011;63319;46.046;17.802;2023-04-20T16:07:58;5.13;;;2.80;;
74791;SDS011;63319;46.046;17.802;2023-04-20T16:11:01;6.50;;;3.43;;
74791;SDS011;63319;46.046;17.802;2023-04-20T16:14:10;7.88;;;3.70;;
74791;SDS011;63319;46.046;17.802;2023-04-20T16:17:13;5.85;;;3.28;;
74791;SDS011;63319;46.046;17.802;2023-04-20T16:20:15;6.22;;;3.22;;
74791;SDS011;63319;46.046;17.802;2023-04-20T16:23:18;7.13;;;3.37;;
74791;SDS011;63319;46.046;17.802;2023-04-20T16:26:24;4.70;;;2.67;;
74791;SDS011;63319;46.046;17.802;2023-04-20T16:29:27;6.43;;;2.80;;
74791;SDS011;63319;46.046;17.802;2023-04-20T16:32:30;7.07;;;3.13;;
74791;SDS011;63319;46.046;17.802;2023-04-20T16:35:33;6.35;;;3.10;;
74791;SDS011;63319;46.046;17.802;2023-04-20T16:38:36;5.53;;;3.10;;
74791;SDS011;63319;46.046;17.802;2023-04-20T16:41:41;6.53;;;2.83;;
74791;SDS011;63319;46.046;17.802;2023-04-20T16:44:44;5.15;;;2.72;;
74791;SDS011;63319;46.046;17.802;2023-04-20T16:47:47;6.47;;;3.42;;
74791;SDS011;63319;46.046;17.802;2023-04-20T16:50:50;6.35;;;2.75;;
74791;SDS011;63319;46.046;17.802;2023-04-20T16:53:53;5.60;;;2.87;;
74791;SDS011;63319;46.046;17.802;2023-04-20T16:56:56;5.97;;;3.20;;
74791;SDS011;63319;46.046;17.802;2023-04-20T16:59:59;5.80;;;3.00;;
74791;SDS011;63319;46.046;17.802;2023-04-20T17:03:04;5.43;;;3.10;;
74791;SDS011;63319;46.046;17.802;2023-04-20T17:06:11;5.45;;;2.60;;
74791;SDS011;63319;46.046;17.802;2023-04-20T17:09:14;5.43;;;3.13;;
74791;SDS011;63319;46.046;17.802;2023-04-20T17:12:16;6.13;;;2.93;;
74791;SDS011;63319;46.046;17.802;2023-04-20T17:15:19;6.90;;;2.80;;
74791;SDS011;63319;46.046;17.802;2023-04-20T17:18:22;5.25;;;2.85;;
74791;SDS011;63319;46.046;17.802;2023-04-20T17:21:25;5.57;;;2.90;;
74791;SDS011;63319;46.046;17.802;2023-04-20T17:24:30;5.93;;;3.37;;
74791;SDS011;63319;46.046;17.802;2023-04-20T17:27:32;8.50;;;3.67;;
74791;SDS011;63319;46.046;17.802;2023-04-20T17:30:36;5.82;;;3.30;;
74791;SDS011;63319;46.046;17.802;2023-04-20T17:33:39;6.60;;;2.90;;
74791;SDS011;63319;46.046;17.802;2023-04-20T17:36:41;7.78;;;3.17;;
74791;SDS011;63319;46.046;17.802;2023-04-20T17:39:44;6.77;;;3.70;;
74791;SDS011;63319;46.046;17.802;2023-04-20T17:42:48;5.17;;;3.03;;
74791;SDS011;63319;46.046;17.802;2023-04-20T17:45:51;5.80;;;3.35;;
74791;SDS011;63319;46.046;17.802;2023-04-20T17:48:54;5.53;;;3.22;;
74791;SDS011;63319;46.046;17.802;2023-04-20T17:51:58;6.93;;;3.72;;
74791;SDS011;63319;46.046;17.802;2023-04-20T17:55:01;5.80;;;3.17;;
74791;SDS011;63319;46.046;17.802;2023-04-20T17:58:05;7.33;;;3.60;;
74791;SDS011;63319;46.046;17.802;2023-04-20T18:01:09;8.70;;;3.33;;
74791;SDS011;63319;46.046;17.802;2023-04-20T18:04:12;7.25;;;3.70;;
74791;SDS011;63319;46.046;17.802;2023-04-20T18:07:16;7.53;;;3.53;;
74791;SDS011;63319;46.046;17.802;2023-04-20T18:10:20;7.47;;;4.00;;
74791;SDS011;63319;46.046;17.802;2023-04-20T18:13:23;9.37;;;3.90;;
74791;SDS011;63319;46.046;17.802;2023-04-20T18:16:26;8.02;;;4.18;;